PWSweather.com
Personal Weather Stations
Station Observations
TORPERJOSANG
Carretera De Villel SN , MochalesES 19332

Carretera De Villel SN MochalesES 19332

Lat: 41.09957, Lon: -2.012569

Elevation: 3215

Station Type: PSW-20

http://www.torresp.com

High Low Average
Temperature 65.3°F18.5°C 57.2°F14.0°C 61.2°F16.2°C
Dew Point 56.3°F13.5°C 52.8°F11.6°C 55.4°F13.0°C
Winds 11.5 mph 18.5 kmh Calm Calm 5.0 mph E8.0 kmh E
Wind Gusts 15.0 mph24.1 kmh -- 7.0 mph11.3 kmh
Humidity 92% 69% 82%
Pressure 30.33 in1027.1 mb 30.30 in1026.1 mb -
Precipitation 0.01 in0.3 mm - -
Hour Temp Dew Point Humidity Winds Wind Gusts Pressure Precip Precip Rate Daily Precip Total
02:15 PM 61.5°F16.4°C 52.8°F11.6°C 73% 2.3 mph N3.7 kmh N 8.1 mph13.0 kmh 30.33 in1027.1 mb - 0.00 in0.0 mm 0.00 in0.0 mm
03:25 PM 60.6°F15.9°C 53.7°F12.1°C 78% 6.9 mph E11.1 kmh E 12.7 mph20.4 kmh 30.33 in1027.1 mb - 0.01 in0.3 mm 0.01 in0.3 mm
03:30 PM 60.1°F15.6°C 54.6°F12.6°C 82% 6.9 mph ENE11.1 kmh ENE 8.1 mph13.0 kmh 30.33 in1027.1 mb - 0.01 in0.3 mm 0.01 in0.3 mm
03:35 PM 59.9°F15.5°C 55.1°F12.8°C 84% 5.8 mph E9.3 kmh E 6.9 mph11.1 kmh 30.33 in1027.1 mb - 0.01 in0.3 mm 0.01 in0.3 mm
03:40 PM 60.1°F15.6°C 55.2°F12.9°C 84% 5.8 mph ENE9.3 kmh ENE 6.9 mph11.1 kmh 30.33 in1027.1 mb - 0.01 in0.3 mm 0.01 in0.3 mm
03:45 PM 60.6°F15.9°C 55.7°F13.2°C 84% 9.2 mph ENE14.8 kmh ENE 12.7 mph20.4 kmh 30.33 in1027.1 mb - 0.01 in0.3 mm 0.01 in0.3 mm
03:50 PM 61.3°F16.3°C 56.1°F13.4°C 83% 6.9 mph E11.1 kmh E 9.2 mph14.8 kmh 30.33 in1027.1 mb - 0.01 in0.3 mm 0.01 in0.3 mm
03:55 PM 61.9°F16.6°C 56.3°F13.5°C 82% 5.8 mph NE9.3 kmh NE 9.2 mph14.8 kmh 30.33 in1027.1 mb - 0.01 in0.3 mm 0.01 in0.3 mm
04:00 PM 62.2°F16.8°C 56.0°F13.3°C 80% 6.9 mph E11.1 kmh E 10.4 mph16.7 kmh 30.33 in1027.1 mb - 0.01 in0.3 mm 0.01 in0.3 mm
04:10 PM 63.0°F17.2°C 54.9°F12.7°C 75% 8.1 mph NNE13.0 kmh NNE 11.5 mph18.5 kmh 30.33 in1027.1 mb - 0.01 in0.3 mm 0.01 in0.3 mm
04:15 PM 63.3°F17.4°C 54.9°F12.7°C 74% 4.6 mph E7.4 kmh E 8.1 mph13.0 kmh 30.33 in1027.1 mb - 0.01 in0.3 mm 0.01 in0.3 mm
04:20 PM 63.3°F17.4°C 54.5°F12.5°C 73% 6.9 mph E11.1 kmh E 8.1 mph13.0 kmh 30.33 in1027.1 mb - 0.01 in0.3 mm 0.01 in0.3 mm
04:25 PM 63.3°F17.4°C 54.5°F12.5°C 73% 8.1 mph NE13.0 kmh NE 10.4 mph16.7 kmh 30.33 in1027.1 mb - 0.01 in0.3 mm 0.01 in0.3 mm
04:30 PM 63.8°F17.7°C 55.0°F12.8°C 73% 5.8 mph ENE9.3 kmh ENE 8.1 mph13.0 kmh 30.33 in1027.1 mb - 0.00 in0.0 mm 0.01 in0.3 mm
04:35 PM 64.6°F18.1°C 55.3°F12.9°C 72% 5.8 mph ESE9.3 kmh ESE 10.4 mph16.7 kmh 30.33 in1027.1 mb - 0.00 in0.0 mm 0.01 in0.3 mm
04:40 PM 64.9°F18.3°C 54.9°F12.7°C 70% 10.4 mph ENE16.7 kmh ENE 12.7 mph20.4 kmh 30.33 in1027.1 mb - 0.00 in0.0 mm 0.01 in0.3 mm
04:45 PM 64.8°F18.2°C 54.3°F12.4°C 69% 8.1 mph E13.0 kmh E 12.7 mph20.4 kmh 30.33 in1027.1 mb - 0.00 in0.0 mm 0.01 in0.3 mm
04:50 PM 64.6°F18.1°C 54.2°F12.3°C 69% 5.8 mph NE9.3 kmh NE 10.4 mph16.7 kmh 30.33 in1027.1 mb - 0.00 in0.0 mm 0.01 in0.3 mm
04:55 PM 64.6°F18.1°C 54.6°F12.6°C 70% 8.1 mph ENE13.0 kmh ENE 13.8 mph22.2 kmh 30.33 in1027.1 mb - 0.00 in0.0 mm 0.01 in0.3 mm
05:00 PM 64.8°F18.2°C 54.7°F12.6°C 70% 8.1 mph E13.0 kmh E 10.4 mph16.7 kmh 30.33 in1027.1 mb - 0.00 in0.0 mm 0.01 in0.3 mm
05:10 PM 65.3°F18.5°C 54.9°F12.7°C 69% 6.9 mph E11.1 kmh E 9.2 mph14.8 kmh 30.30 in1026.1 mb - 0.00 in0.0 mm 0.01 in0.3 mm
05:15 PM 65.3°F18.5°C 54.9°F12.7°C 69% 5.8 mph E9.3 kmh E 10.4 mph16.7 kmh 30.30 in1026.1 mb - 0.00 in0.0 mm 0.01 in0.3 mm
05:20 PM 65.3°F18.5°C 54.9°F12.7°C 69% 5.8 mph NE9.3 kmh NE 8.1 mph13.0 kmh 30.30 in1026.1 mb - 0.00 in0.0 mm 0.01 in0.3 mm
05:25 PM 65.3°F18.5°C 55.3°F12.9°C 70% 9.2 mph NE14.8 kmh NE 12.7 mph20.4 kmh 30.30 in1026.1 mb - 0.00 in0.0 mm 0.01 in0.3 mm
05:30 PM 64.9°F18.3°C 54.9°F12.7°C 70% 11.5 mph NE18.5 kmh NE 15.0 mph24.1 kmh 30.30 in1026.1 mb - 0.00 in0.0 mm 0.01 in0.3 mm
05:35 PM 64.6°F18.1°C 55.0°F12.8°C 71% 8.1 mph E13.0 kmh E 10.4 mph16.7 kmh 30.30 in1026.1 mb - 0.00 in0.0 mm 0.01 in0.3 mm
05:40 PM 64.4°F18.0°C 55.6°F13.1°C 73% 9.2 mph ENE14.8 kmh ENE 12.7 mph20.4 kmh 30.30 in1026.1 mb - 0.00 in0.0 mm 0.01 in0.3 mm
05:45 PM 64.4°F18.0°C 55.9°F13.3°C 74% 8.1 mph E13.0 kmh E 11.5 mph18.5 kmh 30.30 in1026.1 mb - 0.00 in0.0 mm 0.01 in0.3 mm
05:50 PM 64.4°F18.0°C 55.9°F13.3°C 74% 5.8 mph NE9.3 kmh NE 11.5 mph18.5 kmh 30.30 in1026.1 mb - 0.00 in0.0 mm 0.01 in0.3 mm
05:55 PM 64.2°F17.9°C 55.8°F13.2°C 74% 8.1 mph ESE13.0 kmh ESE 10.4 mph16.7 kmh 30.30 in1026.1 mb - 0.00 in0.0 mm 0.01 in0.3 mm
06:00 PM 64.2°F17.9°C 55.8°F13.2°C 74% 8.1 mph E13.0 kmh E 11.5 mph18.5 kmh 30.30 in1026.1 mb - 0.00 in0.0 mm 0.01 in0.3 mm
06:10 PM 64.0°F17.8°C 56.0°F13.3°C 75% 4.6 mph E7.4 kmh E 9.2 mph14.8 kmh 30.30 in1026.1 mb - 0.00 in0.0 mm 0.01 in0.3 mm
06:15 PM 63.9°F17.7°C 55.8°F13.2°C 75% 8.1 mph E13.0 kmh E 12.7 mph20.4 kmh 30.30 in1026.1 mb - 0.00 in0.0 mm 0.01 in0.3 mm
06:20 PM 63.7°F17.6°C 55.6°F13.1°C 75% 5.8 mph ENE9.3 kmh ENE 9.2 mph14.8 kmh 30.30 in1026.1 mb - 0.00 in0.0 mm 0.01 in0.3 mm
06:25 PM 63.5°F17.5°C 55.8°F13.2°C 76% 6.9 mph E11.1 kmh E 8.1 mph13.0 kmh 30.30 in1026.1 mb - 0.00 in0.0 mm 0.01 in0.3 mm
06:30 PM 63.7°F17.6°C 56.0°F13.3°C 76% 6.9 mph E11.1 kmh E 9.2 mph14.8 kmh 30.30 in1026.1 mb - 0.00 in0.0 mm 0.01 in0.3 mm
06:35 PM 63.9°F17.7°C 56.1°F13.4°C 76% 5.8 mph E9.3 kmh E 6.9 mph11.1 kmh 30.30 in1026.1 mb - 0.00 in0.0 mm 0.01 in0.3 mm
06:40 PM 63.9°F17.7°C 56.1°F13.4°C 76% 4.6 mph E7.4 kmh E 5.8 mph9.3 kmh 30.30 in1026.1 mb - 0.00 in0.0 mm 0.01 in0.3 mm
06:45 PM 63.9°F17.7°C 56.1°F13.4°C 76% 4.6 mph E7.4 kmh E 8.1 mph13.0 kmh 30.30 in1026.1 mb - 0.00 in0.0 mm 0.01 in0.3 mm
06:50 PM 63.9°F17.7°C 56.1°F13.4°C 76% 4.6 mph NNE7.4 kmh NNE 5.8 mph9.3 kmh 30.30 in1026.1 mb - 0.00 in0.0 mm 0.01 in0.3 mm
06:55 PM 63.9°F17.7°C 55.8°F13.2°C 75% 5.8 mph NE9.3 kmh NE 10.4 mph16.7 kmh 30.30 in1026.1 mb - 0.00 in0.0 mm 0.01 in0.3 mm
07:00 PM 64.0°F17.8°C 55.2°F12.9°C 73% 6.9 mph ENE11.1 kmh ENE 10.4 mph16.7 kmh 30.30 in1026.1 mb - 0.00 in0.0 mm 0.01 in0.3 mm
07:10 PM 63.3°F17.4°C 55.3°F12.9°C 75% 8.1 mph E13.0 kmh E 11.5 mph18.5 kmh 30.30 in1026.1 mb - 0.00 in0.0 mm 0.01 in0.3 mm
07:15 PM 63.0°F17.2°C 55.3°F12.9°C 76% 6.9 mph E11.1 kmh E 10.4 mph16.7 kmh 30.30 in1026.1 mb - 0.00 in0.0 mm 0.01 in0.3 mm
07:20 PM 62.4°F16.9°C 55.5°F13.1°C 78% 5.8 mph E9.3 kmh E 8.1 mph13.0 kmh 30.30 in1026.1 mb - 0.00 in0.0 mm 0.01 in0.3 mm
07:25 PM 62.1°F16.7°C 55.5°F13.1°C 79% 4.6 mph NE7.4 kmh NE 5.8 mph9.3 kmh 30.30 in1026.1 mb - 0.00 in0.0 mm 0.01 in0.3 mm
07:30 PM 61.9°F16.6°C 55.6°F13.1°C 80% 3.5 mph E5.6 kmh E 6.9 mph11.1 kmh 30.30 in1026.1 mb - 0.00 in0.0 mm 0.01 in0.3 mm
07:35 PM 61.5°F16.4°C 55.3°F12.9°C 80% 5.8 mph E9.3 kmh E 5.8 mph9.3 kmh 30.30 in1026.1 mb - 0.00 in0.0 mm 0.01 in0.3 mm
07:40 PM 61.2°F16.2°C 55.3°F12.9°C 81% 5.8 mph NE9.3 kmh NE 6.9 mph11.1 kmh 30.30 in1026.1 mb - 0.00 in0.0 mm 0.01 in0.3 mm
07:45 PM 61.0°F16.1°C 55.4°F13.0°C 82% 4.6 mph NE7.4 kmh NE 5.8 mph9.3 kmh 30.30 in1026.1 mb - 0.00 in0.0 mm 0.01 in0.3 mm
07:50 PM 60.8°F16.0°C 55.3°F12.9°C 82% 4.6 mph NE7.4 kmh NE 5.8 mph9.3 kmh 30.30 in1026.1 mb - 0.00 in0.0 mm 0.01 in0.3 mm
07:55 PM 60.6°F15.9°C 55.8°F13.2°C 84% 5.8 mph E9.3 kmh E 8.1 mph13.0 kmh 30.30 in1026.1 mb - 0.00 in0.0 mm 0.01 in0.3 mm
08:00 PM 60.6°F15.9°C 56.1°F13.4°C 85% 5.8 mph E9.3 kmh E 8.1 mph13.0 kmh 30.30 in1026.1 mb - 0.00 in0.0 mm 0.01 in0.3 mm
08:10 PM 60.4°F15.8°C 55.9°F13.3°C 85% 6.9 mph NE11.1 kmh NE 8.1 mph13.0 kmh 30.30 in1026.1 mb - 0.00 in0.0 mm 0.01 in0.3 mm
08:15 PM 60.1°F15.6°C 55.6°F13.1°C 85% 5.8 mph NE9.3 kmh NE 6.9 mph11.1 kmh 30.30 in1026.1 mb - 0.00 in0.0 mm 0.01 in0.3 mm
08:20 PM 60.1°F15.6°C 55.9°F13.3°C 86% 2.3 mph E3.7 kmh E 5.8 mph9.3 kmh 30.30 in1026.1 mb - 0.00 in0.0 mm 0.01 in0.3 mm
08:25 PM 59.9°F15.5°C 55.7°F13.2°C 86% 3.5 mph E5.6 kmh E 8.1 mph13.0 kmh 30.30 in1026.1 mb - 0.00 in0.0 mm 0.01 in0.3 mm
08:30 PM 59.7°F15.4°C 55.5°F13.1°C 86% 3.5 mph ENE5.6 kmh ENE 6.9 mph11.1 kmh 30.30 in1026.1 mb - 0.00 in0.0 mm 0.01 in0.3 mm
08:35 PM 59.7°F15.4°C 55.5°F13.1°C 86% 2.3 mph E3.7 kmh E 3.5 mph5.6 kmh 30.30 in1026.1 mb - 0.00 in0.0 mm 0.01 in0.3 mm
08:40 PM 59.5°F15.3°C 55.3°F12.9°C 86% 3.5 mph NE5.6 kmh NE 5.8 mph9.3 kmh 30.30 in1026.1 mb - 0.00 in0.0 mm 0.01 in0.3 mm
08:45 PM 59.4°F15.2°C 55.5°F13.1°C 87% 5.8 mph E9.3 kmh E 8.1 mph13.0 kmh 30.30 in1026.1 mb - 0.00 in0.0 mm 0.01 in0.3 mm
08:50 PM 59.4°F15.2°C 55.5°F13.1°C 87% 3.5 mph E5.6 kmh E 5.8 mph9.3 kmh 30.30 in1026.1 mb - 0.00 in0.0 mm 0.01 in0.3 mm
08:55 PM 59.5°F15.3°C 55.7°F13.2°C 87% 2.3 mph E3.7 kmh E 5.8 mph9.3 kmh 30.30 in1026.1 mb - 0.00 in0.0 mm 0.01 in0.3 mm
09:00 PM 59.4°F15.2°C 55.5°F13.1°C 87% 3.5 mph ENE5.6 kmh ENE 5.8 mph9.3 kmh 30.30 in1026.1 mb - 0.00 in0.0 mm 0.01 in0.3 mm
09:10 PM 59.4°F15.2°C 55.8°F13.2°C 88% 3.5 mph NE5.6 kmh NE 4.6 mph7.4 kmh 30.30 in1026.1 mb - 0.00 in0.0 mm 0.01 in0.3 mm
09:15 PM 59.2°F15.1°C 55.3°F12.9°C 87% 4.6 mph ENE7.4 kmh ENE 6.9 mph11.1 kmh 30.30 in1026.1 mb - 0.00 in0.0 mm 0.01 in0.3 mm
09:20 PM 59.2°F15.1°C 55.6°F13.1°C 88% 3.5 mph NE5.6 kmh NE 5.8 mph9.3 kmh 30.30 in1026.1 mb - 0.00 in0.0 mm 0.01 in0.3 mm
09:25 PM 59.2°F15.1°C 55.6°F13.1°C 88% 5.8 mph E9.3 kmh E 5.8 mph9.3 kmh 30.30 in1026.1 mb - 0.00 in0.0 mm 0.01 in0.3 mm
09:30 PM 59.2°F15.1°C 55.6°F13.1°C 88% 3.5 mph E5.6 kmh E 3.5 mph5.6 kmh 30.30 in1026.1 mb - 0.00 in0.0 mm 0.01 in0.3 mm
09:35 PM 59.2°F15.1°C 55.6°F13.1°C 88% 1.2 mph E1.9 kmh E 3.5 mph5.6 kmh 30.30 in1026.1 mb - 0.00 in0.0 mm 0.01 in0.3 mm
09:40 PM 59.0°F15.0°C 55.4°F13.0°C 88% 1.2 mph E1.9 kmh E 1.2 mph1.9 kmh 30.30 in1026.1 mb - 0.00 in0.0 mm 0.01 in0.3 mm
09:45 PM 58.8°F14.9°C 55.6°F13.1°C 89% 2.3 mph E3.7 kmh E 3.5 mph5.6 kmh 30.30 in1026.1 mb - 0.00 in0.0 mm 0.01 in0.3 mm
09:50 PM 58.8°F14.9°C 55.6°F13.1°C 89% 3.5 mph NE5.6 kmh NE 5.8 mph9.3 kmh 30.30 in1026.1 mb - 0.00 in0.0 mm 0.01 in0.3 mm
09:55 PM 58.8°F14.9°C 55.9°F13.3°C 90% 3.5 mph NE5.6 kmh NE 6.9 mph11.1 kmh 30.30 in1026.1 mb - 0.00 in0.0 mm 0.01 in0.3 mm
10:00 PM 58.8°F14.9°C 55.9°F13.3°C 90% 2.3 mph NE3.7 kmh NE 3.5 mph5.6 kmh 30.30 in1026.1 mb - 0.00 in0.0 mm 0.01 in0.3 mm
10:10 PM 58.5°F14.7°C 55.5°F13.1°C 90% 1.2 mph E1.9 kmh E 2.3 mph3.7 kmh 30.33 in1027.1 mb - 0.00 in0.0 mm 0.01 in0.3 mm
10:15 PM 58.3°F14.6°C 55.4°F13.0°C 90% 3.5 mph E5.6 kmh E 4.6 mph7.4 kmh 30.33 in1027.1 mb - 0.00 in0.0 mm 0.01 in0.3 mm
10:20 PM 58.3°F14.6°C 55.4°F13.0°C 90% 3.5 mph E5.6 kmh E 3.5 mph5.6 kmh 30.33 in1027.1 mb - 0.00 in0.0 mm 0.01 in0.3 mm
10:25 PM 58.3°F14.6°C 55.4°F13.0°C 90% 4.6 mph E7.4 kmh E 5.8 mph9.3 kmh 30.33 in1027.1 mb - 0.00 in0.0 mm 0.01 in0.3 mm
10:30 PM 58.3°F14.6°C 55.7°F13.2°C 91% 1.2 mph NE1.9 kmh NE 2.3 mph3.7 kmh 30.33 in1027.1 mb - 0.00 in0.0 mm 0.01 in0.3 mm
10:35 PM 58.3°F14.6°C 55.7°F13.2°C 91% 1.2 mph ENE1.9 kmh ENE 3.5 mph5.6 kmh 30.33 in1027.1 mb - 0.00 in0.0 mm 0.01 in0.3 mm
10:40 PM 58.3°F14.6°C 55.7°F13.2°C 91% 1.2 mph NE1.9 kmh NE 3.5 mph5.6 kmh 30.33 in1027.1 mb - 0.00 in0.0 mm 0.01 in0.3 mm
10:45 PM 58.3°F14.6°C 55.7°F13.2°C 91% 1.2 mph NE1.9 kmh NE 2.3 mph3.7 kmh 30.33 in1027.1 mb - 0.00 in0.0 mm 0.01 in0.3 mm
10:50 PM 58.3°F14.6°C 55.7°F13.2°C 91% Calm Calm -- 30.33 in1027.1 mb - 0.00 in0.0 mm 0.01 in0.3 mm
10:55 PM 58.3°F14.6°C 55.7°F13.2°C 91% 1.2 mph W1.9 kmh W 1.2 mph1.9 kmh 30.33 in1027.1 mb - 0.00 in0.0 mm 0.01 in0.3 mm
11:00 PM 58.1°F14.5°C 55.5°F13.1°C 91% 1.2 mph W1.9 kmh W 1.2 mph1.9 kmh 30.33 in1027.1 mb - 0.00 in0.0 mm 0.12 in3.0 mm
11:10 PM 58.1°F14.5°C 55.5°F13.1°C 91% 1.2 mph NW1.9 kmh NW 1.2 mph1.9 kmh 30.33 in1027.1 mb - 0.00 in0.0 mm 0.12 in3.0 mm
11:15 PM 57.9°F14.4°C 55.3°F12.9°C 91% 1.2 mph SW1.9 kmh SW 2.3 mph3.7 kmh 30.33 in1027.1 mb - 0.00 in0.0 mm 0.12 in3.0 mm
11:20 PM 57.9°F14.4°C 55.3°F12.9°C 91% 1.2 mph NW1.9 kmh NW 2.3 mph3.7 kmh 30.33 in1027.1 mb - 0.00 in0.0 mm 0.12 in3.0 mm
11:25 PM 57.9°F14.4°C 55.3°F12.9°C 91% Calm Calm -- 30.33 in1027.1 mb - 0.00 in0.0 mm 0.12 in3.0 mm
11:30 PM 57.7°F14.3°C 55.1°F12.8°C 91% Calm Calm 1.2 mph1.9 kmh 30.33 in1027.1 mb - 0.00 in0.0 mm 0.12 in3.0 mm
11:35 PM 57.7°F14.3°C 55.1°F12.8°C 91% Calm Calm 1.2 mph1.9 kmh 30.33 in1027.1 mb - 0.00 in0.0 mm 0.12 in3.0 mm
11:40 PM 57.6°F14.2°C 55.3°F12.9°C 92% Calm Calm -- 30.33 in1027.1 mb - 0.00 in0.0 mm 0.12 in3.0 mm
11:45 PM 57.6°F14.2°C 55.3°F12.9°C 92% Calm Calm -- 30.33 in1027.1 mb - 0.01 in0.3 mm 0.01 in0.3 mm
11:50 PM 57.4°F14.1°C 55.1°F12.8°C 92% 1.2 mph W1.9 kmh W 2.3 mph3.7 kmh 30.33 in1027.1 mb - 0.01 in0.3 mm 0.01 in0.3 mm
11:55 PM 57.2°F14.0°C 54.9°F12.7°C 92% 1.2 mph NW1.9 kmh NW 1.2 mph1.9 kmh 30.33 in1027.1 mb - 0.01 in0.3 mm 0.01 in0.3 mm